createdAt,value
2023-03-31T00:02:14.544Z,98181.22
2023-03-31T00:04:46.370Z,98172.19
2023-03-31T00:07:17.258Z,98180.69
2023-03-31T00:09:46.722Z,98179.16
2023-03-31T00:12:16.036Z,98168.47
2023-03-31T00:14:46.471Z,98171.59
2023-03-31T00:17:16.420Z,98165.47
2023-03-31T00:19:45.475Z,98153.16
2023-03-31T00:22:14.263Z,98156.63
2023-03-31T00:24:43.071Z,98158.81
2023-03-31T00:27:12.068Z,98155.84
2023-03-31T00:29:41.685Z,98146.69
2023-03-31T00:32:12.233Z,98146.69
2023-03-31T00:34:41.198Z,98151.28
2023-03-31T00:37:16.021Z,98143.59
2023-03-31T00:39:44.838Z,98142.25
2023-03-31T00:42:14.171Z,98139.59
2023-03-31T00:45:24.574Z,98130.47
2023-03-31T00:48:03.381Z,98122.47
2023-03-31T00:50:38.654Z,98114.09
2023-03-31T00:53:13.933Z,98121.06
2023-03-31T00:55:49.324Z,98103.59
2023-03-31T00:58:20.800Z,98107.34
2023-03-31T01:00:52.951Z,98099.53
2023-03-31T01:03:25.264Z,98102.94
2023-03-31T01:05:58.911Z,98098.03
2023-03-31T01:08:29.262Z,98090.00
2023-03-31T01:11:03.375Z,98083.09
2023-03-31T01:13:33.655Z,98084.97
2023-03-31T01:16:02.787Z,98080.53
2023-03-31T01:18:40.250Z,98069.84
2023-03-31T01:22:12.669Z,98063.72
2023-03-31T01:25:38.761Z,98059.94
2023-03-31T01:28:23.343Z,98055.06
2023-03-31T01:31:49.639Z,98055.59
2023-03-31T01:35:07.777Z,98055.00
2023-03-31T01:38:23.196Z,98054.19
2023-03-31T01:41:13.449Z,98045.03
2023-03-31T01:43:51.619Z,98035.00
2023-03-31T01:46:30.399Z,98032.00
2023-03-31T01:49:11.654Z,98029.66
2023-03-31T01:51:54.979Z,98033.19
2023-03-31T01:54:33.873Z,98029.22
2023-03-31T01:57:15.362Z,98033.06
2023-03-31T01:59:54.005Z,98021.03
2023-03-31T02:02:32.178Z,98023.13
2023-03-31T02:05:07.377Z,98013.81
2023-03-31T02:07:42.989Z,98012.41
2023-03-31T02:10:16.609Z,98010.72
2023-03-31T02:12:49.924Z,98000.03
2023-03-31T02:15:28.328Z,97999.22
2023-03-31T02:18:01.516Z,97995.19
2023-03-31T02:20:32.675Z,97987.84
2023-03-31T02:23:02.180Z,97986.09
2023-03-31T02:25:39.691Z,97988.00
2023-03-31T02:28:14.975Z,97990.81
2023-03-31T02:30:57.493Z,97990.13
2023-03-31T02:33:26.305Z,97982.56
2023-03-31T02:35:55.197Z,97985.50
2023-03-31T02:38:24.559Z,97983.13
2023-03-31T02:40:53.601Z,97978.03
2023-03-31T02:43:24.277Z,97970.13
2023-03-31T02:46:04.671Z,97972.22
2023-03-31T02:48:38.978Z,97963.97
2023-03-31T02:51:47.841Z,97964.16
2023-03-31T02:54:59.437Z,97966.06
2023-03-31T02:58:14.508Z,97961.81
2023-03-31T03:01:07.537Z,97961.38
2023-03-31T03:03:57.795Z,97961.38
2023-03-31T03:06:43.754Z,97958.00
2023-03-31T03:09:36.859Z,97957.03
2023-03-31T03:12:19.015Z,97949.91
2023-03-31T03:14:57.197Z,97946.66
2023-03-31T03:17:33.597Z,97942.94
2023-03-31T03:20:09.338Z,97942.63
2023-03-31T03:22:38.903Z,97938.25
2023-03-31T03:25:10.645Z,97928.72
2023-03-31T03:27:40.705Z,97936.66
2023-03-31T03:30:12.563Z,97928.03
2023-03-31T03:32:43.277Z,97928.03
2023-03-31T03:35:13.115Z,97926.47
2023-03-31T03:37:41.832Z,97923.50
2023-03-31T03:40:12.099Z,97917.44
2023-03-31T03:42:40.914Z,97916.84
2023-03-31T03:45:10.571Z,97915.00
2023-03-31T03:47:39.414Z,97911.94
2023-03-31T03:50:12.992Z,97911.06
2023-03-31T03:52:43.391Z,97901.81
2023-03-31T03:55:13.969Z,97907.41
2023-03-31T03:57:42.710Z,97893.34
2023-03-31T04:00:13.516Z,97894.97
2023-03-31T04:02:44.166Z,97890.69
2023-03-31T04:05:17.436Z,97882.19
2023-03-31T04:07:46.927Z,97884.59
2023-03-31T04:10:15.798Z,97875.66
2023-03-31T04:12:44.862Z,97870.22
2023-03-31T04:15:13.749Z,97877.41
2023-03-31T04:17:42.451Z,97877.66
2023-03-31T04:20:13.845Z,97866.06
2023-03-31T04:22:42.725Z,97867.78
2023-03-31T04:25:16.375Z,97863.56
2023-03-31T04:27:46.971Z,97851.31
2023-03-31T04:30:22.900Z,97850.75
2023-03-31T04:32:54.842Z,97849.38
2023-03-31T04:35:27.890Z,97846.44
2023-03-31T04:37:59.217Z,97844.56
2023-03-31T04:40:28.776Z,97841.75
2023-03-31T04:42:57.517Z,97836.09
2023-03-31T04:45:26.631Z,97829.41
2023-03-31T04:47:55.627Z,97829.97
2023-03-31T04:50:26.108Z,97823.81
2023-03-31T04:52:54.698Z,97819.22
2023-03-31T04:55:23.634Z,97824.91
2023-03-31T04:57:52.727Z,97819.09
2023-03-31T05:00:23.365Z,97814.56
2023-03-31T05:02:52.407Z,97813.03
2023-03-31T05:05:21.625Z,97805.56
2023-03-31T05:07:51.772Z,97807.91
2023-03-31T05:10:20.924Z,97802.16
2023-03-31T05:12:50.162Z,97803.34
2023-03-31T05:15:19.244Z,97803.09
2023-03-31T05:17:48.120Z,97797.16
2023-03-31T05:20:17.065Z,97799.25
2023-03-31T05:22:45.776Z,97796.81
2023-03-31T05:25:18.757Z,97785.16
2023-03-31T05:27:49.025Z,97776.91
2023-03-31T05:30:19.156Z,97771.91
2023-03-31T05:32:48.010Z,97771.94
2023-03-31T05:35:16.842Z,97762.19
2023-03-31T05:37:45.613Z,97757.66
2023-03-31T05:40:16.330Z,97743.38
2023-03-31T05:42:45.464Z,97749.50
2023-03-31T05:45:14.858Z,97741.75
2023-03-31T05:47:43.882Z,97732.47
2023-03-31T05:50:14.760Z,97723.75
2023-03-31T05:52:43.728Z,97717.16
2023-03-31T05:55:14.256Z,97719.06
2023-03-31T05:57:45.948Z,97714.34
2023-03-31T06:00:19.797Z,97711.19
2023-03-31T06:02:49.476Z,97702.19
2023-03-31T06:05:18.565Z,97690.47
2023-03-31T06:07:51.324Z,97689.94
2023-03-31T06:10:21.480Z,97692.66
2023-03-31T06:12:52.488Z,97688.13
2023-03-31T06:15:23.638Z,97686.81
2023-03-31T06:17:52.666Z,97674.00
2023-03-31T06:20:28.320Z,97670.84
2023-03-31T06:22:57.399Z,97667.63
2023-03-31T06:25:26.246Z,97661.78
2023-03-31T06:27:56.776Z,97658.06
2023-03-31T06:30:25.577Z,97648.25
2023-03-31T06:32:54.426Z,97655.25
2023-03-31T06:35:23.311Z,97645.91
2023-03-31T06:37:52.646Z,97641.41
2023-03-31T06:40:21.421Z,97638.50
2023-03-31T06:42:50.110Z,97639.34
2023-03-31T06:45:20.582Z,97638.00
2023-03-31T06:47:49.384Z,97637.50
2023-03-31T06:50:18.308Z,97634.34
2023-03-31T06:52:47.187Z,97627.91
2023-03-31T06:55:16.979Z,97625.78
2023-03-31T06:57:45.650Z,97630.59
2023-03-31T07:00:16.260Z,97618.00
2023-03-31T07:02:46.421Z,97620.41
2023-03-31T07:05:15.379Z,97617.47
2023-03-31T07:07:46.301Z,97623.09
2023-03-31T07:10:15.219Z,97620.16
2023-03-31T07:12:44.128Z,97611.31
2023-03-31T07:15:13.497Z,97612.91
2023-03-31T07:17:43.139Z,97615.59
2023-03-31T07:20:16.264Z,97603.78
2023-03-31T07:22:45.342Z,97607.00
2023-03-31T07:25:17.057Z,97593.06
2023-03-31T07:27:46.251Z,97586.56
2023-03-31T07:30:18.561Z,97579.03
2023-03-31T07:32:49.630Z,97573.34
2023-03-31T07:35:21.196Z,97566.56
2023-03-31T07:37:51.922Z,97562.75
2023-03-31T07:40:23.878Z,97555.41
2023-03-31T07:42:53.187Z,97551.09
2023-03-31T07:45:23.637Z,97558.03
2023-03-31T07:47:53.159Z,97543.31
2023-03-31T07:50:24.856Z,97537.16
2023-03-31T07:52:55.564Z,97538.50
2023-03-31T07:55:26.401Z,97543.88
2023-03-31T07:57:56.628Z,97544.66
2023-03-31T08:00:25.791Z,97545.47
2023-03-31T08:02:54.591Z,97545.22
2023-03-31T08:05:24.846Z,97550.28
2023-03-31T08:07:53.587Z,97550.50
2023-03-31T08:10:26.677Z,97545.69
2023-03-31T08:12:56.135Z,97555.38
2023-03-31T08:15:25.091Z,97556.66
2023-03-31T08:17:54.074Z,97547.47
2023-03-31T08:20:24.227Z,97551.72
2023-03-31T08:22:53.023Z,97552.53
2023-03-31T08:25:21.923Z,97552.84
2023-03-31T08:27:51.123Z,97558.72
2023-03-31T08:30:21.313Z,97549.84
2023-03-31T08:32:50.019Z,97553.56
2023-03-31T08:35:20.293Z,97538.25
2023-03-31T08:37:50.474Z,97552.75
2023-03-31T08:40:25.913Z,97557.31
2023-03-31T08:43:00.473Z,97552.78
2023-03-31T08:45:36.169Z,97553.34
2023-03-31T08:48:16.976Z,97548.84
2023-03-31T08:50:54.509Z,97543.72
2023-03-31T08:53:30.766Z,97537.31
2023-03-31T08:56:01.638Z,97530.84
2023-03-31T08:58:41.365Z,97539.16
2023-03-31T09:01:28.285Z,97535.06
2023-03-31T09:04:20.338Z,97537.19
2023-03-31T09:07:00.199Z,97528.06
2023-03-31T09:09:46.900Z,97528.78
2023-03-31T09:12:22.294Z,97516.78
2023-03-31T09:15:01.223Z,97499.56
2023-03-31T09:17:35.785Z,97495.47
2023-03-31T09:20:16.104Z,97493.53
2023-03-31T09:22:50.394Z,97486.00
2023-03-31T09:26:14.124Z,97483.47
2023-03-31T09:28:42.770Z,97487.50
2023-03-31T09:31:19.208Z,97484.75
2023-03-31T09:33:49.766Z,97476.69
2023-03-31T09:36:22.513Z,97472.41
2023-03-31T09:38:52.240Z,97455.16
2023-03-31T09:41:22.901Z,97461.91
2023-03-31T09:43:51.928Z,97456.69
2023-03-31T09:46:31.190Z,97457.78
2023-03-31T09:49:06.707Z,97459.97
2023-03-31T09:51:42.644Z,97466.44
2023-03-31T09:54:22.206Z,97468.16
2023-03-31T09:56:54.234Z,97463.38
2023-03-31T09:59:25.651Z,97450.00
2023-03-31T10:02:00.400Z,97437.72
2023-03-31T10:04:33.851Z,97439.41
2023-03-31T10:07:06.262Z,97437.81
2023-03-31T10:09:40.493Z,97442.09
2023-03-31T10:12:24.493Z,97444.75
2023-03-31T10:14:56.187Z,97438.34
2023-03-31T10:17:29.331Z,97426.47
2023-03-31T10:20:00.899Z,97427.34
2023-03-31T10:22:32.520Z,97419.34
2023-03-31T10:25:16.113Z,97419.81
2023-03-31T10:27:51.130Z,97416.84
2023-03-31T10:30:26.191Z,97408.84
2023-03-31T10:32:55.520Z,97415.03
2023-03-31T10:35:37.833Z,97416.38
2023-03-31T10:38:18.114Z,97408.41
2023-03-31T10:40:54.382Z,97394.06
2023-03-31T10:43:30.353Z,97398.06
2023-03-31T10:46:01.365Z,97389.44
2023-03-31T10:48:32.648Z,97387.50
2023-03-31T10:51:07.189Z,97379.03
2023-03-31T10:53:42.970Z,97375.69
2023-03-31T10:56:48.682Z,97376.84
2023-03-31T10:59:43.539Z,97364.97
2023-03-31T11:02:48.989Z,97364.41
2023-03-31T11:05:52.230Z,97365.19
2023-03-31T11:08:51.424Z,97356.31
2023-03-31T11:11:44.916Z,97351.59
2023-03-31T11:14:31.025Z,97344.06
2023-03-31T11:17:09.304Z,97343.72
2023-03-31T11:19:52.196Z,97345.53
2023-03-31T11:22:32.830Z,97334.78
2023-03-31T11:25:33.157Z,97318.44
2023-03-31T11:28:27.544Z,97324.72
2023-03-31T11:31:16.150Z,97313.97
2023-03-31T11:34:17.319Z,97305.72
2023-03-31T11:37:18.413Z,97298.63
2023-03-31T11:40:16.347Z,97282.94
2023-03-31T11:42:55.035Z,97302.16
2023-03-31T11:45:30.749Z,97298.25
2023-03-31T11:48:08.472Z,97297.47
2023-03-31T11:50:41.441Z,97290.50
2023-03-31T11:53:19.140Z,97291.63
2023-03-31T11:55:53.033Z,97283.63
2023-03-31T11:58:36.476Z,97285.81
2023-03-31T12:01:19.145Z,97284.22
2023-03-31T12:04:02.293Z,97269.25
2023-03-31T12:06:39.975Z,97269.81
2023-03-31T12:09:21.064Z,97263.41
2023-03-31T12:12:01.366Z,97258.53
2023-03-31T12:14:36.951Z,97252.13
2023-03-31T12:17:14.599Z,97243.53
2023-03-31T12:19:51.935Z,97244.91
2023-03-31T12:22:27.951Z,97239.88
2023-03-31T12:24:56.893Z,97238.06
2023-03-31T12:27:34.514Z,97227.38
2023-03-31T12:30:07.956Z,97223.66
2023-03-31T12:32:42.721Z,97221.81
2023-03-31T12:35:22.391Z,97225.59
2023-03-31T12:38:21.933Z,97212.78
2023-03-31T12:41:05.571Z,97205.56
2023-03-31T12:44:27.520Z,97204.78
2023-03-31T12:47:28.452Z,97197.81
2023-03-31T12:50:28.281Z,97191.41
2023-03-31T12:53:07.624Z,97192.50
2023-03-31T12:55:42.419Z,97196.81
2023-03-31T12:58:46.456Z,97184.50
2023-03-31T13:01:19.507Z,97181.84
2023-03-31T13:04:10.901Z,97179.16
2023-03-31T13:06:59.981Z,97174.88
2023-03-31T13:09:47.970Z,97170.53
2023-03-31T13:12:20.491Z,97165.91
2023-03-31T13:14:54.293Z,97162.63
2023-03-31T13:17:28.375Z,97148.03
2023-03-31T13:20:17.008Z,97141.19
2023-03-31T13:22:49.588Z,97135.22
2023-03-31T13:25:53.554Z,97136.31
2023-03-31T13:28:42.491Z,97132.66
2023-03-31T13:31:13.329Z,97123.22
2023-03-31T13:33:57.384Z,97117.44
2023-03-31T13:37:08.665Z,97109.06
2023-03-31T13:40:18.092Z,97118.34
2023-03-31T13:43:24.973Z,97128.28
2023-03-31T13:46:26.560Z,97126.63
2023-03-31T13:49:10.304Z,97116.19
2023-03-31T13:51:53.010Z,97125.06
2023-03-31T13:55:06.014Z,97131.31
2023-03-31T13:58:34.337Z,97131.44
2023-03-31T14:01:41.273Z,97135.59
2023-03-31T14:04:37.320Z,97130.38
2023-03-31T14:07:13.805Z,97128.06
2023-03-31T14:09:49.903Z,97125.38
2023-03-31T14:12:35.766Z,97130.28
2023-03-31T14:15:07.869Z,97118.09
2023-03-31T14:17:41.173Z,97121.09
2023-03-31T14:20:33.474Z,97119.03
2023-03-31T14:23:24.972Z,97118.72
2023-03-31T14:26:04.977Z,97121.97
2023-03-31T14:29:01.283Z,97115.25
2023-03-31T14:31:36.650Z,97102.91
2023-03-31T14:34:47.576Z,97111.50
2023-03-31T14:37:21.241Z,97112.22
2023-03-31T14:39:56.837Z,97106.69
2023-03-31T14:42:34.081Z,97092.16
2023-03-31T14:45:09.919Z,97084.84
2023-03-31T14:47:38.652Z,97082.91
2023-03-31T14:50:15.862Z,97078.78
2023-03-31T14:52:49.807Z,97063.03
2023-03-31T14:55:28.649Z,97059.66
2023-03-31T14:58:06.146Z,97064.25
2023-03-31T15:00:37.823Z,97065.53
2023-03-31T15:03:14.245Z,97065.59
2023-03-31T15:05:48.976Z,97065.34
2023-03-31T15:08:25.512Z,97063.16
2023-03-31T15:11:09.580Z,97067.50
2023-03-31T15:13:53.059Z,97066.09
2023-03-31T15:16:42.124Z,97068.56
2023-03-31T15:19:18.100Z,97074.84
2023-03-31T15:21:54.794Z,97074.53
2023-03-31T15:24:24.247Z,97071.72
2023-03-31T15:27:02.553Z,97068.31
2023-03-31T15:29:41.819Z,97069.56
2023-03-31T15:32:18.905Z,97070.94
2023-03-31T15:34:48.264Z,97061.59
2023-03-31T15:37:19.726Z,97065.19
2023-03-31T15:39:52.395Z,97062.41
2023-03-31T15:42:25.522Z,97051.66
2023-03-31T15:45:07.624Z,97052.88
2023-03-31T15:47:41.039Z,97054.06
2023-03-31T15:50:16.435Z,97037.31
2023-03-31T15:52:53.261Z,97040.31
2023-03-31T15:55:29.573Z,97050.47
2023-03-31T15:58:01.239Z,97053.03
2023-03-31T16:00:47.888Z,97051.63
2023-03-31T16:03:24.999Z,97048.06
2023-03-31T16:05:58.535Z,97046.09
2023-03-31T16:08:38.860Z,97051.16
2023-03-31T16:11:15.660Z,97051.06
2023-03-31T16:13:53.509Z,97034.03
2023-03-31T16:16:28.960Z,97048.66
2023-03-31T16:19:07.410Z,97047.06
2023-03-31T16:21:43.448Z,97062.47
2023-03-31T16:24:23.665Z,97075.50
2023-03-31T16:27:17.150Z,97081.41
2023-03-31T16:29:47.583Z,97084.53
2023-03-31T16:32:21.409Z,97094.47
2023-03-31T16:34:59.057Z,97096.19
2023-03-31T16:37:29.367Z,97093.88
2023-03-31T16:39:59.138Z,97097.69
2023-03-31T16:42:28.321Z,97097.00
2023-03-31T16:45:12.693Z,97102.59
2023-03-31T16:47:45.961Z,97099.91
2023-03-31T16:50:15.799Z,97103.97
2023-03-31T16:52:45.506Z,97105.56
2023-03-31T16:55:14.746Z,97104.97
2023-03-31T16:57:43.951Z,97103.44
2023-03-31T17:00:14.915Z,97106.75
2023-03-31T17:02:45.754Z,97111.81
2023-03-31T17:05:14.633Z,97107.28
2023-03-31T17:07:44.823Z,97106.75
2023-03-31T17:10:13.962Z,97107.84
2023-03-31T17:12:43.077Z,97103.03
2023-03-31T17:15:13.870Z,97097.25
2023-03-31T17:17:44.250Z,97096.00
2023-03-31T17:20:14.399Z,97094.28
2023-03-31T17:22:44.265Z,97098.34
2023-03-31T17:25:14.204Z,97104.56
2023-03-31T17:30:40.155Z,97094.53
2023-03-31T17:33:11.409Z,97093.28
2023-03-31T17:35:52.897Z,97091.53
2023-03-31T17:38:23.866Z,97096.78
2023-03-31T17:41:05.407Z,97098.44
2023-03-31T17:43:35.514Z,97096.44
2023-03-31T17:46:06.467Z,97098.78
2023-03-31T17:48:37.476Z,97105.25
2023-03-31T17:51:07.831Z,97111.66
2023-03-31T17:53:37.861Z,97111.72
2023-03-31T17:56:07.529Z,97116.91
2023-03-31T17:58:36.610Z,97123.16
2023-03-31T18:01:47.004Z,97125.78
2023-03-31T18:04:25.687Z,97129.09
2023-03-31T18:06:58.625Z,97123.78
2023-03-31T18:09:47.153Z,97135.56
2023-03-31T18:13:04.451Z,97136.69
2023-03-31T18:15:45.183Z,97145.78
2023-03-31T18:19:06.950Z,97141.47
2023-03-31T18:21:40.322Z,97149.47
2023-03-31T18:24:10.564Z,97151.69
2023-03-31T18:27:02.564Z,97157.03
2023-03-31T18:29:38.498Z,97159.75
2023-03-31T18:32:10.861Z,97163.56
2023-03-31T18:34:41.863Z,97163.06
2023-03-31T18:37:20.862Z,97165.22
2023-03-31T18:40:09.411Z,97170.56
2023-03-31T18:42:48.383Z,97176.41
2023-03-31T18:45:24.241Z,97178.22
2023-03-31T18:47:55.150Z,97177.97
2023-03-31T18:50:37.061Z,97176.88
2023-03-31T18:53:15.642Z,97172.56
2023-03-31T18:55:45.290Z,97173.09
2023-03-31T18:58:14.935Z,97172.25
2023-03-31T19:00:45.823Z,97172.78
2023-03-31T19:03:18.852Z,97172.53
2023-03-31T19:05:49.076Z,97164.47
2023-03-31T19:08:24.462Z,97172.47
2023-03-31T19:11:05.021Z,97169.81
2023-03-31T19:13:39.462Z,97173.53
2023-03-31T19:16:10.148Z,97171.41
2023-03-31T19:18:39.162Z,97171.16
2023-03-31T19:21:07.955Z,97167.13
2023-03-31T19:23:38.092Z,97173.00
2023-03-31T19:26:09.856Z,97174.28
2023-03-31T19:28:40.433Z,97173.78
2023-03-31T19:31:11.617Z,97171.41
2023-03-31T19:33:40.945Z,97167.59
2023-03-31T19:36:12.103Z,97176.13
2023-03-31T19:38:45.333Z,97180.97
2023-03-31T19:41:25.094Z,97172.91
2023-03-31T19:43:58.346Z,97173.75
2023-03-31T19:46:28.604Z,97173.47
2023-03-31T19:49:05.041Z,97174.59
2023-03-31T19:51:33.796Z,97177.78
2023-03-31T19:54:04.236Z,97178.31
2023-03-31T19:56:33.519Z,97178.88
2023-03-31T19:59:02.912Z,97178.59
2023-03-31T20:01:33.172Z,97184.25
2023-03-31T20:04:02.363Z,97186.94
2023-03-31T20:06:32.185Z,97176.50
2023-03-31T20:09:06.393Z,97176.19
2023-03-31T20:11:36.499Z,97178.88
2023-03-31T20:14:06.260Z,97181.53
2023-03-31T20:16:35.513Z,97177.75
2023-03-31T20:19:06.990Z,97178.84
2023-03-31T20:21:39.126Z,97179.91
2023-03-31T20:24:15.748Z,97164.63
2023-03-31T20:26:45.118Z,97162.22
2023-03-31T20:29:14.510Z,97165.38
2023-03-31T20:31:43.627Z,97172.03
2023-03-31T20:34:16.909Z,97166.47
2023-03-31T20:36:49.272Z,97167.81
2023-03-31T20:39:20.392Z,97163.53
2023-03-31T20:41:50.166Z,97164.59
2023-03-31T20:44:19.250Z,97167.00
2023-03-31T20:46:48.579Z,97165.44
2023-03-31T20:49:17.452Z,97169.41
2023-03-31T20:51:47.138Z,97175.03
2023-03-31T20:54:15.885Z,97176.63
2023-03-31T20:56:46.028Z,97183.84
2023-03-31T20:59:16.508Z,97176.63
2023-03-31T21:01:47.926Z,97184.16
2023-03-31T21:04:17.838Z,97183.09
2023-03-31T21:06:48.845Z,97183.34
2023-03-31T21:09:18.741Z,97184.13
2023-03-31T21:11:48.831Z,97187.59
2023-03-31T21:14:18.289Z,97186.31
2023-03-31T21:16:47.181Z,97187.38
2023-03-31T21:19:16.282Z,97186.84
2023-03-31T21:21:44.981Z,97192.50
2023-03-31T21:24:14.885Z,97190.06
2023-03-31T21:26:43.658Z,97192.22
2023-03-31T21:29:13.886Z,97189.00
2023-03-31T21:31:45.004Z,97187.94
2023-03-31T21:34:15.023Z,97182.34
2023-03-31T21:36:43.704Z,97182.63
2023-03-31T21:39:12.475Z,97179.16
2023-03-31T21:41:41.654Z,97180.47
2023-03-31T21:44:10.363Z,97188.75
2023-03-31T21:46:41.225Z,97179.13
2023-03-31T21:49:10.073Z,97183.69
2023-03-31T21:51:38.812Z,97184.75
2023-03-31T21:54:07.584Z,97185.88
2023-03-31T21:56:36.240Z,97185.28
2023-03-31T21:59:05.491Z,97185.28
2023-03-31T22:01:34.275Z,97181.56
2023-03-31T22:04:04.393Z,97181.53
2023-03-31T22:06:34.555Z,97186.94
2023-03-31T22:09:03.394Z,97188.03
2023-03-31T22:11:32.143Z,97179.72
2023-03-31T22:14:01.242Z,97183.47
2023-03-31T22:16:30.012Z,97179.72
2023-03-31T22:19:00.137Z,97187.72
2023-03-31T22:21:43.953Z,97183.19
2023-03-31T22:24:14.413Z,97177.56
2023-03-31T22:26:43.327Z,97170.84
2023-03-31T22:29:16.579Z,97180.50
2023-03-31T22:31:45.253Z,97174.84
2023-03-31T22:34:14.110Z,97179.44
2023-03-31T22:36:44.298Z,97178.63
2023-03-31T22:39:13.004Z,97179.72
2023-03-31T22:41:42.062Z,97177.03
2023-03-31T22:44:11.902Z,97172.47
2023-03-31T22:46:40.745Z,97179.41
2023-03-31T22:49:10.949Z,97177.25
2023-03-31T22:51:40.681Z,97180.75
2023-03-31T22:54:14.976Z,97185.31
2023-03-31T22:56:44.205Z,97181.59
2023-03-31T22:59:12.957Z,97185.31
2023-03-31T23:01:41.654Z,97182.91
2023-03-31T23:04:10.380Z,97181.06
2023-03-31T23:06:39.071Z,97179.66
2023-03-31T23:09:09.087Z,97185.28
2023-03-31T23:11:37.933Z,97185.56
2023-03-31T23:14:06.574Z,97184.75
2023-03-31T23:16:35.577Z,97179.91
2023-03-31T23:19:04.261Z,97183.38
2023-03-31T23:21:33.123Z,97185.00
2023-03-31T23:24:04.186Z,97179.94
2023-03-31T23:26:35.762Z,97183.41
2023-03-31T23:29:05.069Z,97173.78
2023-03-31T23:31:34.656Z,97171.63
2023-03-31T23:34:03.476Z,97174.56
2023-03-31T23:36:32.163Z,97171.31
2023-03-31T23:39:00.882Z,97172.41
2023-03-31T23:41:29.966Z,97170.53
2023-03-31T23:44:00.476Z,97171.31
2023-03-31T23:46:29.917Z,97170.84
2023-03-31T23:48:58.711Z,97170.34
2023-03-31T23:51:27.412Z,97176.78
2023-03-31T23:53:56.391Z,97168.78
2023-03-31T23:56:25.493Z,97170.38
2023-03-31T23:58:54.166Z,97177.34
